createdAt,value
2018-10-17T00:00:57.460Z,16.87
2018-10-17T00:04:00.563Z,17.17
2018-10-17T00:07:03.727Z,14.30
2018-10-17T00:10:07.715Z,14.87
2018-10-17T00:13:10.831Z,14.47
2018-10-17T00:16:13.890Z,13.77
2018-10-17T00:19:17.016Z,14.07
2018-10-17T00:22:20.129Z,14.37
2018-10-17T00:25:23.196Z,16.00
2018-10-17T00:28:26.365Z,16.40
2018-10-17T00:31:29.530Z,16.40
2018-10-17T00:34:33.690Z,15.30
2018-10-17T00:37:36.810Z,15.37
2018-10-17T00:40:39.987Z,13.00
2018-10-17T00:43:43.090Z,13.50
2018-10-17T00:46:46.230Z,12.47
2018-10-17T00:49:49.308Z,13.27
2018-10-17T00:52:52.636Z,12.73
2018-10-17T00:55:55.838Z,13.63
2018-10-17T00:59:05.667Z,13.60
2018-10-17T01:02:08.828Z,13.67
2018-10-17T01:05:12.004Z,14.73
2018-10-17T01:08:15.075Z,14.97
2018-10-17T01:11:18.180Z,14.63
2018-10-17T01:14:21.324Z,13.47
2018-10-17T01:17:24.645Z,15.03
2018-10-17T01:20:27.787Z,15.90
2018-10-17T01:23:30.907Z,15.90
2018-10-17T01:26:34.000Z,15.33
2018-10-17T01:29:37.247Z,15.87
2018-10-17T01:32:40.342Z,16.47
2018-10-17T01:35:43.450Z,16.50
2018-10-17T01:38:46.707Z,15.90
2018-10-17T01:41:49.797Z,16.37
2018-10-17T01:44:52.987Z,16.73
2018-10-17T01:47:56.084Z,17.33
2018-10-17T01:50:59.732Z,16.03
2018-10-17T01:54:02.792Z,16.50
2018-10-17T01:57:06.215Z,17.37
2018-10-17T02:00:09.287Z,17.77
2018-10-17T02:03:12.469Z,17.10
2018-10-17T02:06:15.578Z,17.07
2018-10-17T02:09:18.712Z,16.70
2018-10-17T02:12:21.919Z,16.57
2018-10-17T02:15:25.020Z,16.90
2018-10-17T02:18:28.121Z,16.70
2018-10-17T02:21:31.317Z,17.40
2018-10-17T02:24:34.412Z,15.90
2018-10-17T02:27:37.598Z,16.17
2018-10-17T02:30:40.834Z,16.47
2018-10-17T02:33:43.891Z,15.00
2018-10-17T02:36:47.092Z,15.40
2018-10-17T02:39:50.248Z,15.83
2018-10-17T02:42:53.343Z,14.80
2018-10-17T02:45:56.513Z,14.43
2018-10-17T02:48:59.644Z,15.03
2018-10-17T02:52:02.764Z,15.27
2018-10-17T02:55:06.187Z,14.97
2018-10-17T02:58:09.255Z,15.63
2018-10-17T03:01:12.540Z,14.07
2018-10-17T03:04:15.513Z,14.27
2018-10-17T03:07:18.848Z,14.63
2018-10-17T03:10:21.860Z,13.40
2018-10-17T03:13:26.064Z,13.87
2018-10-17T03:16:29.180Z,13.40
2018-10-17T03:19:32.287Z,13.50
2018-10-17T03:22:35.384Z,13.77
2018-10-17T03:25:38.480Z,14.78
2018-10-17T03:28:41.553Z,14.17
2018-10-17T03:31:44.669Z,13.57
2018-10-17T03:34:47.782Z,13.77
2018-10-17T03:37:50.961Z,13.17
2018-10-17T03:40:54.189Z,12.80
2018-10-17T03:43:57.204Z,12.93
2018-10-17T03:47:00.408Z,12.83
2018-10-17T03:50:03.534Z,13.20
2018-10-17T03:53:06.640Z,12.70
2018-10-17T03:56:09.792Z,11.13
2018-10-17T03:59:12.986Z,9.40
2018-10-17T04:02:16.048Z,7.87
2018-10-17T04:05:19.220Z,8.30
2018-10-17T04:08:22.308Z,7.47
2018-10-17T04:11:25.700Z,7.20
2018-10-17T04:14:28.808Z,7.50
2018-10-17T04:17:31.964Z,7.30
2018-10-17T04:20:35.059Z,6.67
2018-10-17T04:23:38.155Z,6.63
2018-10-17T04:26:41.452Z,6.23
2018-10-17T04:29:44.527Z,6.40
2018-10-17T04:32:47.705Z,6.40
2018-10-17T04:35:51.086Z,6.50
2018-10-17T04:38:54.142Z,6.20
2018-10-17T04:41:57.268Z,6.13
2018-10-17T04:45:00.428Z,5.93
2018-10-17T04:48:03.501Z,6.17
2018-10-17T04:51:06.668Z,6.15
2018-10-17T04:54:09.805Z,6.20
2018-10-17T04:57:12.877Z,5.27
2018-10-17T05:00:15.972Z,5.97
2018-10-17T05:03:19.076Z,5.60
2018-10-17T05:06:22.153Z,6.23
2018-10-17T05:09:25.301Z,5.93
2018-10-17T05:12:28.421Z,5.70
2018-10-17T05:15:31.563Z,5.40
2018-10-17T05:18:34.652Z,5.83
2018-10-17T05:21:37.820Z,5.53
2018-10-17T05:24:40.959Z,5.50
2018-10-17T05:27:44.070Z,5.20
2018-10-17T05:30:47.380Z,5.20
2018-10-17T05:33:50.460Z,5.13
2018-10-17T05:36:53.667Z,5.00
2018-10-17T05:39:56.704Z,4.73
2018-10-17T05:42:59.797Z,5.40
2018-10-17T05:46:02.884Z,5.30
2018-10-17T05:49:06.613Z,5.23
2018-10-17T05:52:09.877Z,5.03
2018-10-17T05:55:13.025Z,5.03
2018-10-17T05:58:16.055Z,5.30
2018-10-17T06:01:19.373Z,4.77
2018-10-17T06:04:22.404Z,4.80
2018-10-17T06:07:25.476Z,5.00
2018-10-17T06:10:28.766Z,5.10
2018-10-17T06:13:31.758Z,4.50
2018-10-17T06:16:34.901Z,4.67
2018-10-17T06:19:37.968Z,4.73
2018-10-17T06:22:41.065Z,4.30
2018-10-17T06:25:44.237Z,4.50
2018-10-17T06:28:47.312Z,5.10
2018-10-17T06:31:50.376Z,4.93
2018-10-17T06:34:53.499Z,4.70
2018-10-17T06:37:56.644Z,4.53
2018-10-17T06:40:59.753Z,4.37
2018-10-17T06:44:03.011Z,4.73
2018-10-17T06:47:06.070Z,4.40
2018-10-17T06:50:09.650Z,4.80
2018-10-17T06:53:12.807Z,4.47
2018-10-17T06:56:16.117Z,4.70
2018-10-17T06:59:19.179Z,4.77
2018-10-17T07:02:22.321Z,4.63
2018-10-17T07:05:25.365Z,4.50
2018-10-17T07:08:28.513Z,4.53
2018-10-17T07:11:31.583Z,4.80
2018-10-17T07:14:34.760Z,4.67
2018-10-17T07:17:37.840Z,4.40
2018-10-17T07:20:40.909Z,4.67
2018-10-17T07:23:44.089Z,4.10
2018-10-17T07:26:47.165Z,4.07
2018-10-17T07:29:50.288Z,4.37
2018-10-17T07:32:53.427Z,4.03
2018-10-17T07:35:56.569Z,4.20
2018-10-17T07:38:59.654Z,4.30
2018-10-17T07:42:02.793Z,4.30
2018-10-17T07:45:06.516Z,4.03
2018-10-17T07:48:09.923Z,4.73
2018-10-17T07:51:13.014Z,4.60
2018-10-17T07:54:16.181Z,4.07
2018-10-17T07:57:19.264Z,4.20
2018-10-17T08:00:22.364Z,3.90
2018-10-17T08:03:25.397Z,4.10
2018-10-17T08:06:28.550Z,4.80
2018-10-17T08:09:31.588Z,4.40
2018-10-17T08:12:34.704Z,4.07
2018-10-17T08:15:37.808Z,4.10
2018-10-17T08:18:40.859Z,4.20
2018-10-17T08:21:44.053Z,4.67
2018-10-17T08:24:48.137Z,4.40
2018-10-17T08:27:51.214Z,4.10
2018-10-17T08:30:54.319Z,4.10
2018-10-17T08:33:57.484Z,4.27
2018-10-17T08:37:01.075Z,4.27
2018-10-17T08:40:03.920Z,4.23
2018-10-17T08:43:07.416Z,4.57
2018-10-17T08:46:10.804Z,4.00
2018-10-17T08:49:13.973Z,4.23
2018-10-17T08:52:17.036Z,4.37
2018-10-17T08:55:20.101Z,4.10
2018-10-17T08:58:23.188Z,3.93
2018-10-17T09:01:26.361Z,4.30
2018-10-17T09:04:29.449Z,4.50
2018-10-17T09:07:32.545Z,4.00
2018-10-17T09:10:35.604Z,4.23
2018-10-17T09:13:38.875Z,4.03
2018-10-17T09:16:42.008Z,4.07
2018-10-17T09:19:45.208Z,4.00
2018-10-17T09:22:48.081Z,3.90
2018-10-17T09:25:51.210Z,3.97
2018-10-17T09:28:54.356Z,4.00
2018-10-17T09:31:57.764Z,4.00
2018-10-17T09:35:00.898Z,4.03
2018-10-17T09:38:04.013Z,4.00
2018-10-17T09:41:07.125Z,4.27
2018-10-17T09:44:10.228Z,4.03
2018-10-17T09:47:13.342Z,4.00
2018-10-17T09:50:16.413Z,4.20
2018-10-17T09:53:19.700Z,4.53
2018-10-17T09:56:22.737Z,3.80
2018-10-17T09:59:25.808Z,3.80
2018-10-17T10:02:28.961Z,3.90
2018-10-17T10:05:31.984Z,4.00
2018-10-17T10:08:35.132Z,4.10
2018-10-17T10:11:38.411Z,3.40
2018-10-17T10:14:41.488Z,4.10
2018-10-17T10:17:44.648Z,3.40
2018-10-17T10:20:47.653Z,3.50
2018-10-17T10:23:50.821Z,3.67
2018-10-17T10:26:53.795Z,3.53
2018-10-17T10:29:56.918Z,3.87
2018-10-17T10:33:00.140Z,3.87
2018-10-17T10:36:03.290Z,3.90
2018-10-17T10:39:09.276Z,3.80
2018-10-17T10:42:12.546Z,3.50
2018-10-17T10:45:15.725Z,3.40
2018-10-17T10:48:18.687Z,3.73
2018-10-17T10:51:21.886Z,3.60
2018-10-17T10:54:24.887Z,3.57
2018-10-17T10:57:27.980Z,4.10
2018-10-17T11:00:31.065Z,3.57
2018-10-17T11:03:34.156Z,3.17
2018-10-17T11:06:37.257Z,3.60
2018-10-17T11:09:40.370Z,3.57
2018-10-17T11:12:43.456Z,3.50
2018-10-17T11:15:46.524Z,3.43
2018-10-17T11:18:49.637Z,3.67
2018-10-17T11:21:52.748Z,3.40
2018-10-17T11:24:55.771Z,3.13
2018-10-17T11:27:58.856Z,3.17
2018-10-17T11:31:01.949Z,3.40
2018-10-17T11:34:05.080Z,3.10
2018-10-17T11:37:08.156Z,3.60
2018-10-17T11:40:11.301Z,3.10
2018-10-17T11:43:14.344Z,3.50
2018-10-17T11:46:17.442Z,3.40
2018-10-17T11:49:20.518Z,3.37
2018-10-17T11:52:23.677Z,3.40
2018-10-17T11:55:26.884Z,3.33
2018-10-17T11:58:30.116Z,3.50
2018-10-17T12:01:33.228Z,3.30
2018-10-17T12:04:36.520Z,3.20
2018-10-17T12:07:39.489Z,3.27
2018-10-17T12:10:42.729Z,3.00
2018-10-17T12:13:45.803Z,3.10
2018-10-17T12:16:48.957Z,3.03
2018-10-17T12:19:52.164Z,3.30
2018-10-17T12:22:55.450Z,3.20
2018-10-17T12:25:59.294Z,3.17
2018-10-17T12:29:29.267Z,3.10
2018-10-17T12:33:00.891Z,3.03
2018-10-17T12:36:04.302Z,3.00
2018-10-17T12:39:10.126Z,2.80
2018-10-17T12:42:13.252Z,3.10
2018-10-17T12:45:16.490Z,2.93
2018-10-17T12:48:19.587Z,3.17
2018-10-17T12:51:22.687Z,3.23
2018-10-17T12:54:25.780Z,3.27
2018-10-17T12:57:29.013Z,3.03
2018-10-17T13:00:32.137Z,3.07
2018-10-17T13:03:35.204Z,3.07
2018-10-17T13:06:38.400Z,2.87
2018-10-17T13:09:41.508Z,2.90
2018-10-17T13:12:44.606Z,2.80
2018-10-17T13:15:47.961Z,2.80
2018-10-17T13:18:51.151Z,2.87
2018-10-17T13:21:54.460Z,3.17
2018-10-17T13:24:57.640Z,2.80
2018-10-17T13:28:00.703Z,3.07
2018-10-17T13:31:03.960Z,2.97
2018-10-17T13:34:07.287Z,2.73
2018-10-17T13:37:10.452Z,2.90
2018-10-17T13:40:13.928Z,3.00
2018-10-17T13:43:17.083Z,2.90
2018-10-17T13:46:20.904Z,2.63
2018-10-17T13:49:24.617Z,2.90
2018-10-17T13:52:27.923Z,2.83
2018-10-17T13:55:32.144Z,3.00
2018-10-17T13:58:36.241Z,2.60
2018-10-17T14:01:40.568Z,2.50
2018-10-17T14:04:43.736Z,2.70
2018-10-17T14:07:47.732Z,2.90
2018-10-17T14:10:51.537Z,2.90
2018-10-17T14:13:55.842Z,3.00
2018-10-17T14:16:59.608Z,2.60
2018-10-17T14:20:02.720Z,2.70
2018-10-17T14:23:05.961Z,2.50
2018-10-17T14:26:09.037Z,2.67
2018-10-17T14:29:12.211Z,2.80
2018-10-17T14:32:23.713Z,2.80
2018-10-17T14:35:27.072Z,2.77
2018-10-17T14:38:30.313Z,2.80
2018-10-17T14:41:34.518Z,2.60
2018-10-17T14:44:37.637Z,2.80
2018-10-17T14:47:40.851Z,2.60
2018-10-17T14:50:46.171Z,2.67
2018-10-17T14:53:51.114Z,2.63
2018-10-17T14:56:54.357Z,2.23
2018-10-17T14:59:57.400Z,2.70
2018-10-17T15:03:00.627Z,2.70
2018-10-17T15:06:03.652Z,5.40
2018-10-17T15:09:07.594Z,4.12
2018-10-17T15:12:10.740Z,7.00
2018-10-17T15:15:13.992Z,6.20
2018-10-17T15:18:17.622Z,8.13
2018-10-17T15:21:20.585Z,6.37
2018-10-17T15:24:23.665Z,6.50
2018-10-17T15:27:26.761Z,6.30
2018-10-17T15:30:31.536Z,5.50
2018-10-17T15:33:34.616Z,5.97
2018-10-17T15:36:37.737Z,6.10
2018-10-17T15:39:40.807Z,6.50
2018-10-17T15:42:43.896Z,6.17
2018-10-17T15:45:46.997Z,7.17
2018-10-17T15:48:50.073Z,7.10
2018-10-17T15:51:53.157Z,7.97
2018-10-17T15:54:56.420Z,8.30
2018-10-17T15:57:59.519Z,7.50
2018-10-17T16:01:02.748Z,7.50
2018-10-17T16:04:05.729Z,7.53
2018-10-17T16:07:08.812Z,7.67
2018-10-17T16:10:15.662Z,6.90
2018-10-17T16:13:18.764Z,6.80
2018-10-17T16:16:21.873Z,7.07
2018-10-17T16:19:25.045Z,6.97
2018-10-17T16:22:28.124Z,7.17
2018-10-17T16:25:31.216Z,7.57
2018-10-17T16:28:34.312Z,7.27
2018-10-17T16:31:37.412Z,7.13
2018-10-17T16:34:40.520Z,6.97
2018-10-17T16:37:43.644Z,6.83
2018-10-17T16:40:46.792Z,6.30
2018-10-17T16:43:49.880Z,6.50
2018-10-17T16:46:52.948Z,6.33
2018-10-17T16:49:56.087Z,6.27
2018-10-17T16:52:59.076Z,7.10
2018-10-17T16:56:02.233Z,6.87
2018-10-17T16:59:05.345Z,6.60
2018-10-17T17:02:08.976Z,6.57
2018-10-17T17:05:13.494Z,6.63
2018-10-17T17:08:16.666Z,6.50
2018-10-17T17:11:19.778Z,7.20
2018-10-17T17:14:23.008Z,7.00
2018-10-17T17:17:26.096Z,7.27
2018-10-17T17:20:29.259Z,6.97
2018-10-17T17:23:32.408Z,7.23
2018-10-17T17:26:35.920Z,7.40
2018-10-17T17:29:39.049Z,7.53
2018-10-17T17:32:42.204Z,7.83
2018-10-17T17:35:45.384Z,7.73
2018-10-17T17:38:48.559Z,8.13
2018-10-17T17:41:51.667Z,7.97
2018-10-17T17:44:54.795Z,8.03
2018-10-17T17:47:57.900Z,8.40
2018-10-17T17:51:01.010Z,8.73
2018-10-17T17:54:04.088Z,8.43
2018-10-17T17:57:07.565Z,8.90
2018-10-17T18:00:10.692Z,8.67
2018-10-17T18:03:14.039Z,9.30
2018-10-17T18:06:17.161Z,9.13
2018-10-17T18:09:20.363Z,10.33
2018-10-17T18:12:23.507Z,11.00
2018-10-17T18:15:26.674Z,11.30
2018-10-17T18:18:29.752Z,10.97
2018-10-17T18:21:33.012Z,11.47
2018-10-17T18:24:36.203Z,11.27
2018-10-17T18:27:40.321Z,12.53
2018-10-17T18:30:43.373Z,12.87
2018-10-17T18:33:46.589Z,14.03
2018-10-17T18:36:49.758Z,13.63
2018-10-17T18:39:52.901Z,14.03
2018-10-17T18:42:56.004Z,13.93
2018-10-17T18:45:59.085Z,14.00
2018-10-17T18:49:02.426Z,14.63
2018-10-17T18:52:05.780Z,14.90
2018-10-17T18:55:09.187Z,14.20
2018-10-17T18:58:12.763Z,16.07
2018-10-17T19:01:15.905Z,15.27
2018-10-17T19:04:19.034Z,16.53
2018-10-17T19:07:22.440Z,15.90
2018-10-17T19:10:25.592Z,16.50
2018-10-17T19:13:28.670Z,16.33
2018-10-17T19:16:32.897Z,16.03
2018-10-17T19:19:36.061Z,17.27
2018-10-17T19:22:39.243Z,16.63
2018-10-17T19:25:42.335Z,17.60
2018-10-17T19:28:45.406Z,16.43
2018-10-17T19:31:48.613Z,17.70
2018-10-17T19:34:51.737Z,18.03
2018-10-17T19:37:54.935Z,18.90
2018-10-17T19:40:58.160Z,18.40
2018-10-17T19:44:01.233Z,18.67
2018-10-17T19:47:04.409Z,19.30
2018-10-17T19:50:08.016Z,20.07
2018-10-17T19:53:11.217Z,20.27
2018-10-17T19:56:15.328Z,19.87
2018-10-17T19:59:18.489Z,20.07
2018-10-17T20:02:21.629Z,19.40
2018-10-17T20:05:24.700Z,19.87
2018-10-17T20:08:27.767Z,20.23
2018-10-17T20:11:30.863Z,20.93
2018-10-17T20:14:34.072Z,20.80
2018-10-17T20:17:37.300Z,21.60
2018-10-17T20:20:40.452Z,20.83
2018-10-17T20:23:43.528Z,21.23
2018-10-17T20:26:46.674Z,20.63
2018-10-17T20:29:49.916Z,21.90
2018-10-17T20:32:53.037Z,21.60
2018-10-17T20:35:56.201Z,21.63
2018-10-17T20:39:00.029Z,23.33
2018-10-17T20:42:03.189Z,22.57
2018-10-17T20:45:06.304Z,48.13
2018-10-17T20:48:09.384Z,45.50
2018-10-17T20:51:12.581Z,48.30
2018-10-17T20:54:15.699Z,48.40
2018-10-17T20:57:18.802Z,46.67
2018-10-17T21:00:21.880Z,47.10
2018-10-17T21:03:24.992Z,45.80
2018-10-17T21:06:28.215Z,46.57
2018-10-17T21:09:31.253Z,45.23
2018-10-17T21:12:34.429Z,44.33
2018-10-17T21:15:36.620Z,43.87
2018-10-17T21:18:39.847Z,44.50
2018-10-17T21:21:43.040Z,38.07
2018-10-17T21:24:46.104Z,35.47
2018-10-17T21:27:49.288Z,31.90
2018-10-17T21:30:52.560Z,30.67
2018-10-17T21:33:55.748Z,26.27
2018-10-17T21:36:58.836Z,26.60
2018-10-17T21:40:01.938Z,24.27
2018-10-17T21:43:05.316Z,22.70
2018-10-17T21:46:08.406Z,23.83
2018-10-17T21:49:11.508Z,21.77
2018-10-17T21:52:14.684Z,20.73
2018-10-17T21:55:17.839Z,20.33
2018-10-17T21:58:20.945Z,19.73
2018-10-17T22:01:24.104Z,19.50
2018-10-17T22:04:27.187Z,19.20
2018-10-17T22:07:30.285Z,18.80
2018-10-17T22:10:33.377Z,19.80
2018-10-17T22:13:36.492Z,18.73
2018-10-17T22:16:44.889Z,18.63
2018-10-17T22:19:48.037Z,18.73
2018-10-17T22:22:51.048Z,19.10
2018-10-17T22:25:54.147Z,19.30
2018-10-17T22:28:57.201Z,18.20
2018-10-17T22:32:01.192Z,20.57
2018-10-17T22:35:04.203Z,18.37
2018-10-17T22:38:07.365Z,18.40
2018-10-17T22:41:10.562Z,19.93
2018-10-17T22:44:14.116Z,18.53
2018-10-17T22:47:17.133Z,19.73
2018-10-17T22:50:20.264Z,21.33
2018-10-17T22:53:23.361Z,22.33
2018-10-17T22:56:26.425Z,21.10
2018-10-17T22:59:29.509Z,22.53
2018-10-17T23:02:32.672Z,22.03
2018-10-17T23:05:35.739Z,22.60
2018-10-17T23:08:38.924Z,20.47
2018-10-17T23:11:42.701Z,20.50
2018-10-17T23:14:45.841Z,20.73
2018-10-17T23:17:48.992Z,20.20
2018-10-17T23:20:52.130Z,20.70
2018-10-17T23:23:55.219Z,20.63
2018-10-17T23:26:58.293Z,20.40
2018-10-17T23:30:01.369Z,20.00
2018-10-17T23:33:04.452Z,19.43
2018-10-17T23:36:07.716Z,20.20
2018-10-17T23:39:10.903Z,18.83
2018-10-17T23:42:14.092Z,17.97
2018-10-17T23:45:17.221Z,17.93
2018-10-17T23:48:20.300Z,19.43
2018-10-17T23:51:23.366Z,17.70
2018-10-17T23:54:26.473Z,17.23
2018-10-17T23:57:29.548Z,17.60
